Time;durP1;ratioP1;P1;durP2;ratioP2;P2;SDS_P1;SDS_P2;PMS_P1;PMS_P2;Temp;Humidity;BMP_temperature;BMP_pressure;BME280_temperature;BME280_humidity;BME280_pressure;Samples;Min_cycle;Max_cycle;Signal;HPM_P1;HPM_P2
2021/01/30 00:03:16;;;;;;;123.18;60.45;;;;;;;-4.18;81.57;97937.52;252813;1105;116582;-66
2021/01/30 00:08:18;;;;;;;138.52;67.60;;;;;;;-4.13;80.13;97936.97;252741;1105;117446;-69
2021/01/30 00:13:21;;;;;;;158.65;71.28;;;;;;;-4.05;83.05;97960.27;252351;1104;116961;-66
2021/01/30 00:23:16;;;;;;;130.18;60.43;;;;;;;-3.96;80.07;97946.13;256628;1105;104131;-68
2021/01/30 00:28:19;;;;;;;121.37;60.95;;;;;;;-3.94;82.14;97928.53;252434;1105;119267;-66
2021/01/30 00:33:23;;;;;;;121.60;59.15;;;;;;;-3.90;82.05;97921.96;252758;1105;115941;-63
2021/01/30 00:38:26;;;;;;;113.33;56.57;;;;;;;-3.87;81.04;97945.02;252015;1105;115970;-66
2021/01/30 00:43:30;;;;;;;114.10;61.37;;;;;;;-3.84;80.91;97949.05;253213;1106;116306;-65
2021/01/30 00:48:33;;;;;;;149.25;67.87;;;;;;;-3.79;81.36;97944.90;253466;1106;115105;-66
2021/01/30 00:53:37;;;;;;;147.35;71.47;;;;;;;-3.71;80.55;97949.17;254423;1108;114500;-66
2021/01/30 00:58:42;;;;;;;157.78;71.95;;;;;;;-3.68;81.17;97950.60;254551;1107;114621;-67
2021/01/30 01:03:45;;;;;;;162.75;70.37;;;;;;;-3.65;79.62;97950.20;254632;1108;115052;-64
2021/01/30 01:08:49;;;;;;;153.80;70.27;;;;;;;-3.53;79.38;97949.52;254093;1108;115418;-67
2021/01/30 01:13:53;;;;;;;151.47;75.05;;;;;;;-3.39;77.54;97940.02;254498;1108;115648;-67
2021/01/30 01:18:57;;;;;;;119.33;60.08;;;;;;;-3.37;79.73;97938.02;252475;1107;115339;-65
2021/01/30 01:24:01;;;;;;;117.05;57.67;;;;;;;-3.28;76.76;97929.05;253619;1107;116253;-64
2021/01/30 01:29:04;;;;;;;126.78;63.45;;;;;;;-3.28;78.58;97926.44;253386;1108;115232;-62
2021/01/30 01:34:07;;;;;;;122.47;63.58;;;;;;;-3.32;77.36;97927.81;251812;1109;115183;-65
2021/01/30 01:39:11;;;;;;;122.02;61.05;;;;;;;-3.30;77.20;97922.41;252492;1107;114547;-64
2021/01/30 01:44:14;;;;;;;128.20;63.48;;;;;;;-3.37;79.05;97916.38;253212;1108;114769;-67
2021/01/30 01:49:21;;;;;;;131.22;62.03;;;;;;;-3.41;78.74;97913.34;253218;1106;115782;-65
2021/01/30 01:54:26;;;;;;;126.33;58.87;;;;;;;-3.41;78.29;97908.13;252304;1108;115825;-65
2021/01/30 01:59:30;;;;;;;124.83;63.07;;;;;;;-3.37;80.02;97901.55;252089;1108;115144;-64
2021/01/30 02:04:35;;;;;;;107.43;54.15;;;;;;;-3.33;77.93;97889.73;251759;1108;114811;-65
2021/01/30 02:09:39;;;;;;;105.65;54.33;;;;;;;-3.30;78.91;97886.74;252846;1106;114793;-66
2021/01/30 02:14:47;;;;;;;105.80;51.55;;;;;;;-3.34;80.53;97889.91;251840;1106;114855;-66
2021/01/30 02:20:29;;;;;;;109.15;56.60;;;;;;;-3.42;79.70;97881.28;253383;1108;115252;-65
2021/01/30 02:25:57;;;;;;;104.63;54.08;;;;;;;-3.39;78.90;97877.48;252320;1107;114911;-65
2021/01/30 02:31:09;;;;;;;103.23;50.43;;;;;;;-3.32;79.08;97877.50;253585;1108;114995;-67
2021/01/30 02:36:22;;;;;;;89.40;51.60;;;;;;;-3.29;78.72;97880.53;252781;1107;115354;-67
2021/01/30 02:41:31;;;;;;;98.95;49.67;;;;;;;-3.32;80.60;97867.89;252523;1108;114743;-66
2021/01/30 02:46:41;;;;;;;113.40;52.75;;;;;;;-3.31;80.53;97874.70;251710;1108;114821;-68
2021/01/30 02:51:49;;;;;;;99.40;45.80;;;;;;;-3.37;81.08;97869.48;253490;1108;115026;-71
2021/01/30 02:56:56;;;;;;;100.33;52.00;;;;;;;-3.36;79.03;97866.66;254407;1107;115255;-65
2021/01/30 03:02:00;;;;;;;80.20;40.98;;;;;;;-3.29;77.86;97853.67;254369;1108;116029;-66
2021/01/30 03:07:25;;;;;;;95.12;44.27;;;;;;;-3.10;78.92;97860.81;254444;1107;115902;-67
2021/01/30 03:13:14;;;;;;;90.20;47.55;;;;;;;-3.07;78.78;97855.21;254509;1108;115327;-67
2021/01/30 03:18:22;;;;;;;95.62;48.52;;;;;;;-2.98;77.66;97861.04;252694;1108;115767;-65
2021/01/30 03:23:28;;;;;;;109.27;51.05;;;;;;;-2.94;77.63;97847.42;253897;1107;114953;-66
2021/01/30 03:28:33;;;;;;;87.27;46.40;;;;;;;-2.95;77.62;97848.42;253857;1108;115226;-66
2021/01/30 03:33:37;;;;;;;99.87;45.80;;;;;;;-2.94;77.75;97854.44;252528;1107;114766;-65
2021/01/30 03:38:41;;;;;;;89.00;41.20;;;;;;;-2.91;76.52;97861.88;253300;1107;114979;-66
2021/01/30 03:43:45;;;;;;;83.43;37.63;;;;;;;-3.00;75.92;97858.63;252429;1108;115528;-66
2021/01/30 03:48:49;;;;;;;84.40;39.58;;;;;;;-2.96;77.86;97846.81;251592;1108;117399;-65
2021/01/30 03:53:53;;;;;;;64.58;31.68;;;;;;;-2.95;76.72;97845.81;252390;1109;117115;-66
2021/01/30 03:58:57;;;;;;;73.05;40.67;;;;;;;-3.00;78.84;97840.38;252306;1109;115996;-65
2021/01/30 04:04:01;;;;;;;58.73;33.67;;;;;;;-2.99;76.65;97836.77;252562;1108;115332;-66
2021/01/30 04:09:06;;;;;;;57.00;31.70;;;;;;;-3.01;77.03;97836.16;252717;1108;115632;-68
2021/01/30 04:14:10;;;;;;;66.15;33.30;;;;;;;-3.03;78.30;97835.55;252077;1109;116974;-67
2021/01/30 04:19:13;;;;;;;56.20;29.23;;;;;;;-3.07;76.48;97818.72;251884;1106;116566;-68
2021/01/30 04:24:17;;;;;;;54.63;27.87;;;;;;;-3.02;76.15;97812.90;252578;1108;116458;-67
2021/01/30 04:29:21;;;;;;;50.12;30.82;;;;;;;-2.98;75.67;97814.12;253270;1108;117809;-67
2021/01/30 04:34:25;;;;;;;44.70;27.77;;;;;;;-3.00;75.81;97810.91;253080;1108;119046;-67
2021/01/30 04:39:29;;;;;;;53.00;29.20;;;;;;;-2.93;77.35;97814.34;253354;1107;115027;-68
2021/01/30 04:44:55;;;;;;;55.50;27.45;;;;;;;-2.96;76.39;97799.89;252153;1106;115510;-67
2021/01/30 04:50:18;;;;;;;48.92;26.65;;;;;;;-2.97;76.15;97813.92;253901;1108;116303;-67
2021/01/30 04:55:30;;;;;;;52.55;28.70;;;;;;;-3.03;75.65;97806.08;253904;1107;115912;-68
2021/01/30 05:00:45;;;;;;;51.28;28.83;;;;;;;-3.03;76.96;97804.27;254517;1108;114888;-67
2021/01/30 05:05:54;;;;;;;48.15;26.68;;;;;;;-2.98;76.73;97809.71;254649;1106;114687;-67
2021/01/30 05:11:05;;;;;;;55.92;27.40;;;;;;;-2.97;75.27;97802.70;254283;1107;114454;-67
2021/01/30 05:16:18;;;;;;;46.40;24.93;;;;;;;-2.96;75.22;97788.66;253344;1108;115122;-66
2021/01/30 05:21:42;;;;;;;57.85;31.87;;;;;;;-3.01;74.87;97785.84;254160;1106;114645;-66
2021/01/30 05:27:25;;;;;;;54.10;27.95;;;;;;;-3.02;75.85;97779.81;253773;1106;114980;-67
2021/01/30 05:32:31;;;;;;;53.10;25.23;;;;;;;-2.94;75.20;97771.02;253549;1106;114725;-66
2021/01/30 05:37:58;;;;;;;51.85;29.05;;;;;;;-3.00;76.02;97788.25;252528;1108;116660;-68
2021/01/30 05:43:31;;;;;;;47.53;25.75;;;;;;;-2.99;76.20;97784.64;252455;1108;114678;-66
2021/01/30 05:48:43;;;;;;;44.93;24.92;;;;;;;-3.01;75.73;97791.85;252077;1109;114726;-65
2021/01/30 05:53:48;;;;;;;59.75;24.87;;;;;;;-3.10;75.95;97783.42;252784;1106;115282;-65
2021/01/30 05:58:52;;;;;;;56.60;28.50;;;;;;;-3.14;76.56;97791.82;252282;1108;115052;-65
2021/01/30 06:03:56;;;;;;;66.85;32.83;;;;;;;-3.17;76.60;97782.59;252069;1109;115397;-66
2021/01/30 06:09:28;;;;;;;46.50;26.33;;;;;;;-3.23;78.19;97783.36;252080;1108;114839;-66
2021/01/30 06:14:37;;;;;;;47.38;25.97;;;;;;;-3.27;77.96;97783.94;253566;1108;115222;-67
2021/01/30 06:19:41;;;;;;;53.30;27.65;;;;;;;-3.21;77.00;97793.59;252166;1109;115821;-66
2021/01/30 06:24:45;;;;;;;60.43;31.87;;;;;;;-3.15;77.55;97785.00;252685;1108;114703;-66
2021/01/30 06:29:53;;;;;;;56.13;30.80;;;;;;;-3.14;78.39;97794.43;251568;1108;115654;-65
2021/01/30 06:35:07;;;;;;;57.70;27.27;;;;;;;-3.11;78.93;97792.24;252501;1109;115516;-65
2021/01/30 06:40:27;;;;;;;86.30;35.98;;;;;;;-3.08;79.45;97788.44;253180;1106;115286;-65
2021/01/30 06:45:38;;;;;;;51.00;25.62;;;;;;;-3.14;80.45;97782.20;252283;1109;117173;-65
2021/01/30 06:50:43;;;;;;;53.13;27.20;;;;;;;-3.15;80.64;97785.80;252821;1108;115712;-68
2021/01/30 06:55:46;;;;;;;36.40;19.05;;;;;;;-3.18;80.31;97788.80;254110;1108;115859;-69
2021/01/30 07:00:50;;;;;;;45.92;23.65;;;;;;;-3.17;80.69;97795.63;254588;1107;116171;-63
2021/01/30 07:06:08;;;;;;;40.00;21.52;;;;;;;-3.15;81.58;97806.66;254818;1107;115068;-63
2021/01/30 07:11:45;;;;;;;50.65;25.50;;;;;;;-3.12;82.01;97808.07;254465;1107;114960;-63
2021/01/30 07:17:44;;;;;;;43.55;22.73;;;;;;;-3.13;80.91;97809.88;254603;1106;114809;-65
2021/01/30 07:22:50;;;;;;;45.85;24.92;;;;;;;-3.08;81.55;97807.49;254283;1108;115622;-63
2021/01/30 07:28:18;;;;;;;39.80;21.95;;;;;;;-3.06;81.21;97815.89;254092;1106;116673;-64
2021/01/30 07:33:29;;;;;;;47.67;24.97;;;;;;;-3.01;80.57;97802.28;252995;1108;116552;-62
2021/01/30 07:39:03;;;;;;;46.20;25.15;;;;;;;-2.98;81.34;97803.69;252469;1108;115455;-64
2021/01/30 07:44:27;;;;;;;58.55;29.05;;;;;;;-2.96;80.92;97812.13;252213;1108;116022;-64
2021/01/30 07:49:34;;;;;;;45.65;23.25;;;;;;;-3.01;81.23;97817.92;252070;1109;197663;-63
2021/01/30 07:54:46;;;;;;;51.92;25.90;;;;;;;-2.98;81.56;97814.12;252596;1108;115783;-63
2021/01/30 07:59:56;;;;;;;61.00;33.48;;;;;;;-2.93;80.70;97812.54;253098;1109;115159;-64
2021/01/30 08:05:14;;;;;;;60.15;30.30;;;;;;;-2.94;82.26;97817.95;252612;1106;115142;-65
2021/01/30 08:10:30;;;;;;;56.08;26.65;;;;;;;-2.94;82.66;97826.57;251594;1109;115371;-65
2021/01/30 08:16:02;;;;;;;50.07;24.60;;;;;;;-2.91;82.64;97807.94;252285;1108;115111;-68
2021/01/30 08:21:39;;;;;;;50.87;28.03;;;;;;;-2.82;81.48;97819.00;251958;1108;114717;-68
2021/01/30 08:26:48;;;;;;;55.33;29.60;;;;;;;-2.71;82.63;97834.86;253387;1106;114592;-67
2021/01/30 08:32:00;;;;;;;49.80;30.48;;;;;;;-2.55;80.38;97840.73;252355;1107;114655;-66
2021/01/30 08:37:11;;;;;;;66.53;31.80;;;;;;;-2.38;81.76;97841.95;251993;1108;114733;-65
2021/01/30 08:42:20;;;;;;;63.70;30.07;;;;;;;-2.24;80.47;97855.84;252405;1108;114735;-65
2021/01/30 08:47:26;;;;;;;58.68;31.37;;;;;;;-2.19;78.87;97851.63;252314;1109;115850;-66
2021/01/30 08:52:53;;;;;;;45.85;25.32;;;;;;;-2.32;78.61;97842.97;253781;1106;114602;-67
2021/01/30 08:57:56;;;;;;;43.85;23.73;;;;;;;-2.32;80.41;97850.80;254801;1108;115348;-66
2021/01/30 09:03:06;;;;;;;40.17;20.17;;;;;;;-2.34;79.93;97866.66;253372;1108;115573;-69
2021/01/30 09:08:16;;;;;;;19.30;11.68;;;;;;;-2.36;78.18;97873.87;252569;1109;115129;-68
2021/01/30 09:13:20;;;;;;;44.08;24.15;;;;;;;-2.24;78.24;97894.98;254572;1106;115612;-66
2021/01/30 09:18:36;;;;;;;35.55;19.62;;;;;;;-2.20;78.28;97894.40;254461;1106;115666;-66
2021/01/30 09:24:17;;;;;;;42.13;22.37;;;;;;;-2.10;77.85;97901.82;254184;1107;115112;-67
2021/01/30 09:29:25;;;;;;;35.37;21.77;;;;;;;-1.93;77.79;97912.70;253465;1106;116040;-66
2021/01/30 09:34:42;;;;;;;53.58;25.20;;;;;;;-1.86;78.61;97922.16;253387;1106;117170;-67
2021/01/30 09:39:56;;;;;;;30.70;18.37;;;;;;;-1.76;77.09;97935.61;252190;1109;115398;-66
2021/01/30 09:45:21;;;;;;;44.35;25.82;;;;;;;-1.58;78.48;97947.28;253274;1107;114936;-66
2021/01/30 09:50:31;;;;;;;40.10;20.97;;;;;;;-1.47;76.09;97962.34;251819;1106;116339;-66
2021/01/30 09:55:37;;;;;;;41.98;21.97;;;;;;;-1.37;76.52;97973.20;252015;1108;117221;-67
2021/01/30 10:00:44;;;;;;;34.17;21.30;;;;;;;-1.34;76.40;97970.19;252381;1108;140404;-68
2021/01/30 10:05:53;;;;;;;33.98;17.98;;;;;;;-1.28;76.14;97982.47;251835;1109;116750;-65
2021/01/30 10:11:07;;;;;;;48.98;23.80;;;;;;;-1.24;76.01;97977.64;251727;1108;117807;-65
2021/01/30 10:16:23;;;;;;;60.52;30.30;;;;;;;-1.10;76.41;97992.30;252164;1108;116481;-64
2021/01/30 10:21:41;;;;;;;48.00;26.97;;;;;;;-0.86;76.12;97981.19;252263;1108;114991;-67
2021/01/30 10:26:47;;;;;;;60.40;29.98;;;;;;;-0.64;74.30;97981.75;252346;1108;116973;-66
2021/01/30 10:31:55;;;;;;;55.47;30.97;;;;;;;-0.46;74.60;97981.88;252783;1108;116247;-62
2021/01/30 10:37:14;;;;;;;50.67;28.57;;;;;;;-0.19;74.14;97989.63;252173;1109;116303;-63
2021/01/30 10:42:24;;;;;;;;;;;;;;;-0.08;73.30;98004.70;252673;1108;115047;-66
2021/01/30 10:47:28;;;;;;;46.90;25.62;;;;;;;0.00;72.75;98001.84;254123;1108;104143;-67
2021/01/30 10:52:32;;;;;;;56.48;30.52;;;;;;;0.22;71.88;98003.13;251661;1108;115320;-66
2021/01/30 10:57:36;;;;;;;44.97;22.13;;;;;;;0.36;70.73;98005.65;254149;1107;115919;-64
2021/01/30 11:02:44;;;;;;;38.00;19.85;;;;;;;0.56;70.10;98011.58;253127;1108;117534;-66
2021/01/30 11:08:01;;;;;;;40.70;25.70;;;;;;;0.75;69.49;98012.44;254325;1108;116350;-64
2021/01/30 11:13:19;;;;;;;29.72;18.35;;;;;;;0.74;68.05;98016.88;254580;1107;115184;-65
2021/01/30 11:18:32;;;;;;;47.40;27.13;;;;;;;0.86;69.69;98020.42;254424;1107;115841;-65
2021/01/30 11:23:48;;;;;;;39.55;24.40;;;;;;;0.75;68.74;98023.73;253021;1108;114864;-65
2021/01/30 11:28:54;;;;;;;34.27;21.05;;;;;;;0.69;69.26;98035.06;252845;1108;115410;-65
2021/01/30 11:33:58;;;;;;;16.37;10.13;;;;;;;0.56;69.05;98041.22;252229;1108;115177;-68
2021/01/30 11:39:06;;;;;;;44.58;23.70;;;;;;;0.68;70.85;98041.33;253081;1109;114526;-67
2021/01/30 11:44:10;;;;;;;43.15;26.45;;;;;;;0.82;70.48;98052.54;251929;1106;114769;-64
2021/01/30 11:49:14;;;;;;;40.45;24.95;;;;;;;0.97;69.29;98045.94;252570;1108;115355;-63
2021/01/30 11:54:19;;;;;;;46.23;25.53;;;;;;;0.88;69.28;98051.69;251892;1108;115217;-63
2021/01/30 11:59:22;;;;;;;42.13;26.97;;;;;;;0.90;68.71;98054.91;253033;1107;114908;-65
2021/01/30 12:04:25;;;;;;;46.48;32.90;;;;;;;0.99;70.19;98070.14;252581;1106;115627;-64
2021/01/30 12:09:28;;;;;;;55.03;31.93;;;;;;;1.03;69.21;98070.52;251608;1109;115494;-66
2021/01/30 12:14:31;;;;;;;46.53;27.30;;;;;;;0.97;69.49;98077.42;252141;1108;115697;-66
2021/01/30 12:19:34;;;;;;;27.33;15.70;;;;;;;0.99;69.15;98087.70;252326;1106;115069;-64
2021/01/30 12:24:37;;;;;;;57.67;30.70;;;;;;;1.12;69.90;98094.69;252214;1109;115377;-65
2021/01/30 12:29:41;;;;;;;40.83;21.57;;;;;;;1.01;69.84;98099.59;251964;1109;117601;-68
2021/01/30 12:34:44;;;;;;;40.45;24.45;;;;;;;1.02;71.23;98100.41;252468;1108;115243;-67
2021/01/30 12:39:47;;;;;;;44.10;25.32;;;;;;;1.07;71.31;98105.02;252787;1109;116913;-66
2021/01/30 12:44:51;;;;;;;44.90;23.62;;;;;;;1.01;69.83;98117.97;253034;1108;117459;-65
2021/01/30 12:49:55;;;;;;;41.53;22.00;;;;;;;1.13;70.78;98114.66;252926;1106;117119;-67
2021/01/30 12:54:57;;;;;;;25.65;16.17;;;;;;;1.02;69.22;98121.39;253209;1107;117304;-66
2021/01/30 13:00:09;;;;;;;24.98;14.05;;;;;;;1.08;68.61;98125.80;253313;1107;117123;-65
2021/01/30 13:05:14;;;;;;;32.88;16.15;;;;;;;1.14;69.51;98124.14;254800;1106;115265;-65
2021/01/30 13:10:20;;;;;;;28.10;14.83;;;;;;;1.09;69.66;98121.35;254757;1108;116843;-66
2021/01/30 13:15:23;;;;;;;26.90;16.60;;;;;;;1.00;70.11;98128.67;254607;1107;117270;-65
2021/01/30 13:20:28;;;;;;;29.70;15.03;;;;;;;0.93;70.11;98133.16;254803;1107;117196;-64
2021/01/30 13:25:33;;;;;;;27.67;15.35;;;;;;;0.93;70.22;98128.71;252684;1109;117629;-69
2021/01/30 13:30:39;;;;;;;26.45;15.78;;;;;;;0.79;71.00;98137.70;252722;1108;116517;-64
2021/01/30 13:35:43;;;;;;;27.22;14.98;;;;;;;0.61;71.74;98148.09;254232;1108;115087;-62
2021/01/30 13:40:48;;;;;;;22.87;13.95;;;;;;;0.40;71.95;98156.23;252427;1108;115433;-66
2021/01/30 13:45:51;;;;;;;24.30;13.25;;;;;;;0.23;72.82;98167.20;253927;1107;115965;-64
2021/01/30 13:50:55;;;;;;;24.23;13.55;;;;;;;0.17;72.56;98167.22;253473;1107;115439;-63
2021/01/30 13:55:59;;;;;;;20.92;10.98;;;;;;;0.11;72.53;98187.18;252490;1108;117297;-61
2021/01/30 14:01:03;;;;;;;24.47;12.65;;;;;;;0.16;73.42;98191.80;253577;1108;116389;-62
2021/01/30 14:06:08;;;;;;;18.00;9.75;;;;;;;0.02;71.86;98196.26;252533;1106;116602;-62
2021/01/30 14:11:11;;;;;;;20.80;12.85;;;;;;;-0.05;72.64;98198.11;251782;1109;115202;-61
2021/01/30 14:16:16;;;;;;;20.10;11.95;;;;;;;-0.22;73.23;98202.14;251798;1109;115573;-61
2021/01/30 14:21:23;;;;;;;20.88;11.05;;;;;;;-0.30;73.51;98216.24;253301;1106;115598;-62
2021/01/30 14:26:26;;;;;;;28.67;14.83;;;;;;;-0.35;74.07;98219.49;251494;1108;115119;-61
2021/01/30 14:31:29;;;;;;;23.85;14.73;;;;;;;-0.40;74.46;98226.33;253304;1106;115967;-62
2021/01/30 14:36:34;;;;;;;22.33;11.57;;;;;;;-0.34;74.91;98228.16;252725;1108;115419;-60
2021/01/30 14:41:38;;;;;;;24.47;12.70;;;;;;;-0.43;75.93;98234.59;252827;1108;115145;-61
2021/01/30 14:46:43;;;;;;;25.57;14.10;;;;;;;-0.44;75.34;98241.63;253576;1107;114879;-61
2021/01/30 14:51:48;;;;;;;25.57;15.55;;;;;;;-0.53;75.36;98245.44;252145;1108;116132;-60
2021/01/30 14:56:51;;;;;;;30.65;16.50;;;;;;;-0.63;76.00;98246.86;254118;1108;115649;-61
2021/01/30 15:01:56;;;;;;;24.70;13.23;;;;;;;-0.66;76.19;98248.06;253751;1107;115197;-62
2021/01/30 15:07:00;;;;;;;24.45;14.95;;;;;;;-0.71;76.74;98245.23;254566;1108;116075;-65
2021/01/30 15:12:04;;;;;;;20.12;13.08;;;;;;;-0.76;75.67;98247.63;254091;1107;114862;-66
2021/01/30 15:17:09;;;;;;;19.73;12.25;;;;;;;-0.79;76.50;98254.06;254394;1108;115496;-65
2021/01/30 15:22:12;;;;;;;26.20;13.90;;;;;;;-0.77;76.15;98259.91;253778;1107;115773;-65
2021/01/30 15:27:15;;;;;;;24.85;14.35;;;;;;;-0.79;76.97;98279.42;253686;1107;115212;-65
2021/01/30 15:32:19;;;;;;;26.80;18.35;;;;;;;-0.85;76.84;98275.78;254456;1108;116121;-64
2021/01/30 15:37:24;;;;;;;28.62;16.25;;;;;;;-0.93;77.68;98283.83;251893;1108;115411;-64
2021/01/30 15:42:28;;;;;;;24.27;13.72;;;;;;;-1.03;78.91;98286.80;253524;1106;115412;-65
2021/01/30 15:47:30;;;;;;;146.57;57.70;;;;;;;-1.12;78.92;98298.42;252231;1107;114940;-65
2021/01/30 15:52:34;;;;;;;18.27;12.30;;;;;;;-1.25;77.94;98294.97;252877;1108;114990;-64
2021/01/30 15:57:37;;;;;;;16.60;9.67;;;;;;;-1.27;76.88;98304.81;253186;1106;114841;-65
2021/01/30 16:02:40;;;;;;;14.18;8.28;;;;;;;-1.32;76.60;98305.38;253163;1107;117846;-65
2021/01/30 16:07:43;;;;;;;14.75;8.65;;;;;;;-1.34;76.59;98312.61;252274;1106;116515;-62
2021/01/30 16:12:47;;;;;;;16.25;8.38;;;;;;;-1.40;74.95;98321.22;252268;1106;116382;-63
2021/01/30 16:17:53;;;;;;;15.63;8.45;;;;;;;-1.45;74.92;98326.20;252807;1108;116140;-63
2021/01/30 16:22:56;;;;;;;9.85;6.15;;;;;;;-1.50;72.79;98328.59;253104;1108;116461;-65
2021/01/30 16:27:59;;;;;;;14.23;12.43;;;;;;;-1.53;73.09;98332.39;253228;1108;117518;-67
2021/01/30 16:33:04;;;;;;;10.82;8.08;;;;;;;-1.49;72.16;98338.84;252534;1108;117813;-67
2021/01/30 16:38:08;;;;;;;11.90;6.97;;;;;;;-1.54;73.04;98345.67;252154;1107;116998;-64
2021/01/30 16:43:12;;;;;;;14.17;7.27;;;;;;;-1.66;72.54;98340.16;251734;1109;117321;-65
2021/01/30 16:48:16;;;;;;;7.78;4.45;;;;;;;-1.71;72.02;98353.78;252516;1108;116221;-62
2021/01/30 16:53:20;;;;;;;10.13;5.40;;;;;;;-1.72;73.18;98361.81;253396;1108;117245;-65
2021/01/30 16:58:23;;;;;;;11.97;8.48;;;;;;;-1.73;72.93;98373.26;253711;1108;115979;-66
2021/01/30 17:03:27;;;;;;;13.40;7.12;;;;;;;-1.80;72.86;98375.00;252754;1108;115548;-65
2021/01/30 17:08:29;;;;;;;11.33;7.57;;;;;;;-1.75;72.17;98389.12;253773;1107;114959;-65
2021/01/30 17:13:36;;;;;;;12.67;7.67;;;;;;;-1.83;72.92;98401.50;253135;1108;114986;-65
2021/01/30 17:18:40;;;;;;;14.20;7.45;;;;;;;-1.93;70.68;98414.89;253144;1107;114740;-64
2021/01/30 17:23:43;;;;;;;9.40;6.03;;;;;;;-2.03;71.10;98432.66;252596;1107;115616;-67
2021/01/30 17:28:46;;;;;;;10.40;6.80;;;;;;;-2.10;69.86;98437.81;254405;1107;114656;-66
2021/01/30 17:33:49;;;;;;;12.25;6.78;;;;;;;-2.16;69.96;98449.02;254624;1108;114904;-63
2021/01/30 17:38:52;;;;;;;12.37;8.15;;;;;;;-2.17;70.90;98462.26;254503;1108;116340;-65
2021/01/30 17:43:55;;;;;;;11.73;7.35;;;;;;;-2.31;70.37;98465.70;253908;1108;114538;-65
2021/01/30 17:48:58;;;;;;;12.73;8.70;;;;;;;-2.32;67.87;98471.91;253781;1107;115359;-67
2021/01/30 17:54:01;;;;;;;8.08;7.30;;;;;;;-2.30;68.39;98477.76;252215;1109;115766;-65
2021/01/30 17:59:05;;;;;;;8.70;6.53;;;;;;;-2.39;69.47;98475.25;253236;1108;115518;-68
2021/01/30 18:04:09;;;;;;;7.92;4.78;;;;;;;-2.48;67.39;98473.75;252757;1108;114856;-63
2021/01/30 18:09:15;;;;;;;8.70;5.72;;;;;;;-2.48;68.27;98478.16;252123;1107;114869;-62
2021/01/30 18:14:19;;;;;;;9.20;6.20;;;;;;;-2.47;68.91;98485.81;251804;1107;114874;-64
2021/01/30 18:19:23;;;;;;;12.68;8.13;;;;;;;-2.66;69.51;98486.34;251981;1109;114702;-66
2021/01/30 18:24:28;;;;;;;15.08;7.00;;;;;;;-2.77;69.72;98508.49;252168;1108;115475;-64
2021/01/30 18:29:31;;;;;;;10.45;6.85;;;;;;;-2.78;71.00;98508.67;252104;1106;115055;-65
2021/01/30 18:34:35;;;;;;;12.18;7.15;;;;;;;-2.83;68.79;98503.98;252787;1108;115345;-62
2021/01/30 18:39:38;;;;;;;9.95;6.80;;;;;;;-2.82;69.25;98515.23;252675;1108;114931;-65
2021/01/30 18:44:43;;;;;;;12.45;7.55;;;;;;;-2.76;70.30;98514.52;252862;1109;115081;-64
2021/01/30 18:49:49;;;;;;;13.62;8.83;;;;;;;-2.82;69.82;98521.26;252515;1108;115193;-64
2021/01/30 18:54:52;;;;;;;7.30;5.90;;;;;;;-2.80;70.60;98519.28;252643;1108;115072;-64
2021/01/30 18:59:56;;;;;;;12.00;5.13;;;;;;;-2.81;69.94;98522.06;253813;1108;114476;-63
2021/01/30 19:04:59;;;;;;;9.63;6.25;;;;;;;-2.83;69.97;98522.25;253444;1108;115873;-66
2021/01/30 19:10:05;;;;;;;8.20;7.22;;;;;;;-2.94;68.95;98525.28;254539;1108;114945;-68
2021/01/30 19:15:21;;;;;;;12.63;5.67;;;;;;;-3.00;68.52;98518.16;254646;1106;115343;-68
2021/01/30 19:20:29;;;;;;;9.73;5.07;;;;;;;-3.02;68.74;98524.54;254405;1108;115107;-69
2021/01/30 19:25:34;;;;;;;12.00;6.22;;;;;;;-3.03;70.16;98534.16;254473;1107;114755;-69
2021/01/30 19:30:37;;;;;;;9.80;6.37;;;;;;;-3.08;68.97;98528.69;253744;1108;115182;-68
2021/01/30 19:35:40;;;;;;;9.10;5.37;;;;;;;-3.15;70.58;98525.97;254659;1107;115759;-63
2021/01/30 19:40:45;;;;;;;8.95;5.40;;;;;;;-3.16;70.46;98533.97;253908;1108;115039;-66
2021/01/30 19:45:48;;;;;;;8.00;5.58;;;;;;;-3.20;69.59;98543.13;253653;1107;114480;-66
2021/01/30 19:50:52;;;;;;;6.10;5.00;;;;;;;-3.20;69.37;98541.33;252739;1108;117288;-64
2021/01/30 19:55:57;;;;;;;11.97;5.58;;;;;;;-3.13;69.97;98537.03;252353;1107;116572;-67
2021/01/30 20:01:01;;;;;;;9.73;5.35;;;;;;;-3.18;69.37;98541.97;253056;1108;116749;-67
2021/01/30 20:06:04;;;;;;;9.93;5.10;;;;;;;-3.19;70.72;98545.55;252675;1108;115414;-64
2021/01/30 20:11:08;;;;;;;7.03;4.47;;;;;;;-3.16;70.36;98549.61;253469;1108;116156;-65
2021/01/30 20:16:11;;;;;;;5.85;3.87;;;;;;;-3.18;70.93;98549.78;252018;1108;116997;-62
2021/01/30 20:21:14;;;;;;;9.10;4.60;;;;;;;-3.15;71.43;98548.62;252896;1109;114571;-63
2021/01/30 20:26:18;;;;;;;9.88;5.05;;;;;;;-3.14;71.25;98543.23;251789;1108;115786;-63
2021/01/30 20:31:21;;;;;;;17.45;10.00;;;;;;;-3.11;70.00;98544.68;252248;1109;115968;-63
2021/01/30 20:36:24;;;;;;;11.12;6.90;;;;;;;-3.06;70.27;98547.58;251521;1106;116383;-63
2021/01/30 20:41:28;;;;;;;10.25;5.40;;;;;;;-3.01;68.58;98553.05;252468;1108;115499;-64
2021/01/30 20:46:32;;;;;;;15.55;7.62;;;;;;;-3.01;70.46;98566.08;252443;1108;115929;-63
2021/01/30 20:51:35;;;;;;;12.07;6.95;;;;;;;-3.06;70.99;98564.00;253061;1108;115357;-64
2021/01/30 20:56:40;;;;;;;10.58;5.60;;;;;;;-3.09;72.07;98566.98;253342;1108;116443;-63
2021/01/30 21:01:45;;;;;;;10.03;5.43;;;;;;;-3.09;70.28;98577.41;252924;1107;115274;-62
2021/01/30 21:06:51;;;;;;;10.40;5.28;;;;;;;-3.05;69.62;98581.26;253276;1108;114744;-65
2021/01/30 21:11:55;;;;;;;11.95;7.75;;;;;;;-3.05;69.36;98580.45;252756;1108;114699;-64
2021/01/30 21:17:01;;;;;;;15.05;6.87;;;;;;;-3.13;70.02;98586.56;253723;1108;114608;-66
2021/01/30 21:22:05;;;;;;;14.55;9.38;;;;;;;-3.09;69.37;98590.45;253777;1108;115423;-65
2021/01/30 21:27:08;;;;;;;17.20;6.92;;;;;;;-3.15;70.04;98598.95;254753;1108;115809;-68
2021/01/30 21:32:12;;;;;;;17.65;7.87;;;;;;;-3.15;70.37;98598.95;254682;1107;114646;-68
2021/01/30 21:37:16;;;;;;;16.35;8.50;;;;;;;-3.05;71.57;98602.11;254314;1107;115982;-66
2021/01/30 21:42:19;;;;;;;20.23;8.53;;;;;;;-3.04;67.77;98602.92;254459;1108;115432;-65
2021/01/30 21:47:25;;;;;;;18.67;9.30;;;;;;;-3.12;68.98;98608.23;254050;1107;115533;-66
2021/01/30 21:52:30;;;;;;;24.55;12.43;;;;;;;-3.10;70.43;98619.29;252413;1108;115302;-67
2021/01/30 21:57:34;;;;;;;19.12;8.73;;;;;;;-3.16;68.60;98628.61;253311;1107;116090;-65
2021/01/30 22:02:38;;;;;;;29.32;13.68;;;;;;;-3.22;69.82;98623.28;251895;1109;115806;-65
2021/01/30 22:07:46;;;;;;;20.25;9.25;;;;;;;-3.25;68.87;98632.25;252224;1108;118328;-68
2021/01/30 22:12:50;;;;;;;41.98;15.60;;;;;;;-3.26;71.08;98632.42;252622;1107;114592;-66
2021/01/30 22:17:57;;;;;;;62.25;23.18;;;;;;;-3.24;69.44;98636.48;252324;1108;115470;-73
2021/01/30 22:23:01;;;;;;;84.28;26.20;;;;;;;-3.27;69.08;98626.41;252720;1108;116013;-69
2021/01/30 22:28:05;;;;;;;56.90;23.38;;;;;;;-3.33;68.80;98621.87;251988;1109;116397;-69
2021/01/30 22:33:10;;;;;;;60.45;19.00;;;;;;;-3.29;68.47;98607.52;252405;1108;116170;-67
2021/01/30 22:38:14;;;;;;;33.55;14.18;;;;;;;-3.30;69.52;98610.30;252182;1108;114947;-68
2021/01/30 22:43:17;;;;;;;33.35;14.53;;;;;;;-3.28;69.47;98609.14;251784;1108;115464;-67
2021/01/30 22:48:20;;;;;;;27.27;11.57;;;;;;;-3.30;69.80;98605.90;253714;1108;115685;-74
2021/01/30 22:53:25;;;;;;;27.40;13.78;;;;;;;-3.29;70.14;98617.94;251913;1109;118220;-68
2021/01/30 22:58:29;;;;;;;22.20;10.18;;;;;;;-3.28;69.10;98606.54;252349;1108;117192;-67
2021/01/30 23:03:32;;;;;;;19.62;10.10;;;;;;;-3.34;68.78;98601.20;252766;1108;115958;-67
2021/01/30 23:08:37;;;;;;;15.03;8.35;;;;;;;-3.41;68.89;98608.92;252311;1109;116246;-67
2021/01/30 23:13:40;;;;;;;19.33;7.40;;;;;;;-3.46;69.03;98616.44;253086;1108;116178;-66